Terminal Aerodrome Forecast
Issued by NWS

Current Version | Previous Version | Text Only | Print | Product List | Glossary On
Versions: 1 2 3 4 5 6 7 8 9 10 11 12 13 14
000
FTUS45 KRIW 031122
TAFWRL
TAF
KWRL 031122Z 0312/0412 VRB05KT P6SM SKC
     FM031800 14005KT P6SM SCT100
     FM032000 13007KT P6SM VCTS SCT080CB BKN120
     FM040300 12006KT P6SM BKN100
     FM040600 16006KT P6SM FEW120=

USA.gov is the U.S. government's official web portal to all federal, state and local government web resources and services.